Time;durP1;ratioP1;P1;durP2;ratioP2;P2;SDS_P1;SDS_P2;PMS_P1;PMS_P2;Temp;Humidity;BMP_temperature;BMP_pressure;BME280_temperature;BME280_humidity;BME280_pressure;Samples;Min_cycle;Max_cycle;Signal;HPM_P1;HPM_P2
2022/05/02 00:00:56;;;;;;;6.65;5.85;;;10.70;91.20;;;;;;5086675;28;20028;-42
2022/05/02 00:03:21;;;;;;;6.32;5.57;;;10.70;91.20;;;;;;5097637;28;20534;-43
2022/05/02 00:05:49;;;;;;;6.90;6.05;;;10.70;91.20;;;;;;5089423;28;20115;-44
2022/05/02 00:08:15;;;;;;;7.28;5.15;;;10.60;91.20;;;;;;5094827;28;20027;-40
2022/05/02 00:10:40;;;;;;;6.55;5.50;;;10.60;91.30;;;;;;5091028;28;20101;-41
2022/05/02 00:13:07;;;;;;;6.15;5.43;;;10.60;91.30;;;;;;5093215;28;20360;-42
2022/05/02 00:15:32;;;;;;;6.68;5.60;;;10.60;91.30;;;;;;5092368;28;20796;-43
2022/05/02 00:18:01;;;;;;;6.95;5.63;;;10.60;91.40;;;;;;5090062;28;20031;-43
2022/05/02 00:20:32;;;;;;;6.80;6.10;;;10.60;91.40;;;;;;5095710;28;20106;-41
2022/05/02 00:23:00;;;;;;;6.82;5.70;;;10.50;91.40;;;;;;5088323;28;20032;-42
2022/05/02 00:25:27;;;;;;;5.78;4.95;;;10.50;91.50;;;;;;5096754;28;20020;-41
2022/05/02 00:27:52;;;;;;;7.07;5.82;;;10.50;91.50;;;;;;5088849;28;20110;-42
2022/05/02 00:30:18;;;;;;;6.05;5.45;;;10.50;91.60;;;;;;5097604;28;20103;-42
2022/05/02 00:32:45;;;;;;;7.20;6.18;;;10.50;91.60;;;;;;5087125;28;20036;-42
2022/05/02 00:35:11;;;;;;;6.60;5.90;;;10.40;91.60;;;;;;5098680;28;20107;-42
2022/05/02 00:37:37;;;;;;;10.18;6.60;;;10.40;91.70;;;;;;5085772;28;20050;-42
2022/05/02 00:40:07;;;;;;;8.32;6.47;;;10.40;91.80;;;;;;5099899;28;20024;-42
2022/05/02 00:42:33;;;;;;;7.20;6.03;;;10.40;91.80;;;;;;5085722;28;20487;-42
2022/05/02 00:44:59;;;;;;;6.60;5.80;;;10.40;91.90;;;;;;5099717;28;20020;-42
2022/05/02 00:47:25;;;;;;;10.05;6.93;;;10.30;91.90;;;;;;5085524;28;20040;-42
2022/05/02 00:49:51;;;;;;;7.03;5.85;;;10.30;92.00;;;;;;5095737;28;20019;-41
2022/05/02 00:52:20;;;;;;;8.60;6.85;;;10.30;92.00;;;;;;5089008;28;20074;-41
2022/05/02 00:54:46;;;;;;;7.03;6.32;;;10.30;92.10;;;;;;5092727;28;20026;-42
2022/05/02 00:57:14;;;;;;;8.43;7.20;;;10.30;92.20;;;;;;5089318;28;20528;-42
2022/05/02 00:59:41;;;;;;;10.80;7.28;;;10.30;92.20;;;;;;5090479;28;20047;-41
2022/05/02 01:02:08;;;;;;;8.30;6.78;;;10.20;92.30;;;;;;5093192;28;20393;-42
2022/05/02 01:04:35;;;;;;;7.25;6.43;;;10.30;92.30;;;;;;5088858;28;20019;-40
2022/05/02 01:07:10;;;;;;;6.80;6.10;;;10.30;92.40;;;;;;5095491;28;20035;-42
2022/05/02 01:09:38;;;;;;;7.47;6.65;;;10.20;92.40;;;;;;5088240;28;20479;-40
2022/05/02 01:12:06;;;;;;;7.55;5.95;;;10.20;92.40;;;;;;5095483;28;20032;-38
2022/05/02 01:14:34;;;;;;;8.07;7.00;;;10.20;92.40;;;;;;5086630;28;20043;-41
2022/05/02 01:17:00;;;;;;;7.57;6.72;;;10.10;92.40;;;;;;5097620;28;20483;-41
2022/05/02 01:19:25;;;;;;;7.38;6.53;;;10.10;92.40;;;;;;5086227;28;20047;-41
2022/05/02 01:21:51;;;;;;;9.30;6.85;;;10.10;92.50;;;;;;5097571;28;20059;-40
2022/05/02 01:24:16;;;;;;;9.13;6.63;;;10.10;92.50;;;;;;5085965;28;20514;-42
2022/05/02 01:26:42;;;;;;;7.60;6.50;;;10.10;92.50;;;;;;5097114;28;20082;-42
2022/05/02 01:29:07;;;;;;;8.57;6.82;;;10.10;92.50;;;;;;5085411;28;20028;-43
2022/05/02 01:31:33;;;;;;;9.45;7.10;;;10.10;92.60;;;;;;5096665;28;20072;-42
2022/05/02 01:34:00;;;;;;;7.53;6.38;;;10.00;92.60;;;;;;5085556;28;20479;-42
2022/05/02 01:36:25;;;;;;;8.63;6.55;;;10.00;92.70;;;;;;5095421;28;20023;-43
2022/05/02 01:38:51;;;;;;;7.45;6.68;;;10.00;92.70;;;;;;5086883;28;20769;-41
2022/05/02 01:41:17;;;;;;;9.30;6.75;;;10.00;92.70;;;;;;5093905;28;20016;-43
2022/05/02 01:43:43;;;;;;;8.70;6.60;;;10.00;92.70;;;;;;5098879;28;20520;-42
2022/05/02 01:46:11;;;;;;;8.45;7.40;;;10.00;92.80;;;;;;5100061;28;20024;-42
2022/05/02 01:48:36;;;;;;;11.00;7.10;;;10.00;92.80;;;;;;5097899;28;20536;-43
2022/05/02 01:51:03;;;;;;;8.13;6.28;;;9.90;92.80;;;;;;5100787;28;20024;-44
2022/05/02 01:53:29;;;;;;;8.30;7.00;;;9.90;92.90;;;;;;5094100;28;20032;-42
2022/05/02 01:55:54;;;;;;;9.13;7.57;;;9.90;92.90;;;;;;5103153;28;20027;-40
2022/05/02 01:58:23;;;;;;;8.63;7.20;;;9.90;92.90;;;;;;5092898;28;20048;-42
2022/05/02 02:00:48;;;;;;;9.05;7.10;;;9.80;92.90;;;;;;5108087;28;20080;-41
2022/05/02 02:03:14;;;;;;;7.57;6.40;;;9.90;92.90;;;;;;5098330;28;20019;-41
2022/05/02 02:05:49;;;;;;;8.70;7.15;;;9.90;93.00;;;;;;5110396;28;20023;-41
2022/05/02 02:08:31;;;;;;;9.27;7.43;;;9.90;93.00;;;;;;5096530;28;20107;-41
2022/05/02 02:11:05;;;;;;;9.68;6.90;;;9.80;93.10;;;;;;5110341;28;20064;-42
2022/05/02 02:13:31;;;;;;;8.57;7.18;;;9.80;93.00;;;;;;5097001;28;20030;-43
2022/05/02 02:15:57;;;;;;;10.43;7.65;;;9.80;93.10;;;;;;5088970;28;20024;-40
2022/05/02 02:18:23;;;;;;;12.93;7.50;;;9.80;93.20;;;;;;5102405;28;20140;-42
2022/05/02 02:20:52;;;;;;;8.73;7.55;;;9.70;93.20;;;;;;5089473;28;20067;-41
2022/05/02 02:23:18;;;;;;;9.35;8.02;;;9.70;93.30;;;;;;5102240;28;20027;-42
2022/05/02 02:25:44;;;;;;;10.13;8.20;;;9.70;93.40;;;;;;5089836;28;20035;-42
2022/05/02 02:28:10;;;;;;;9.35;7.70;;;9.70;93.40;;;;;;5098966;28;20027;-43
2022/05/02 02:30:35;;;;;;;10.52;8.15;;;9.70;93.50;;;;;;5091783;28;20039;-41
2022/05/02 02:33:02;;;;;;;10.63;7.50;;;9.60;93.50;;;;;;5096939;28;20044;-42
2022/05/02 02:35:28;;;;;;;9.95;8.00;;;9.60;93.50;;;;;;5092632;28;20367;-41
2022/05/02 02:37:54;;;;;;;10.40;8.15;;;9.60;93.60;;;;;;5094997;28;20049;-42
2022/05/02 02:40:20;;;;;;;9.02;7.88;;;9.60;93.70;;;;;;5096381;28;20035;-43
2022/05/02 02:42:45;;;;;;;9.40;7.65;;;9.50;93.70;;;;;;5091018;28;20031;-42
2022/05/02 02:45:11;;;;;;;9.63;7.53;;;9.50;93.90;;;;;;5088951;28;20024;-40
2022/05/02 02:47:37;;;;;;;10.20;8.38;;;9.50;94.00;;;;;;5093685;28;20101;-41
2022/05/02 02:50:03;;;;;;;9.05;7.75;;;9.40;94.10;;;;;;5097436;28;20035;-43
2022/05/02 02:52:29;;;;;;;10.07;7.78;;;9.40;94.20;;;;;;5106487;28;20746;-41
2022/05/02 02:54:54;;;;;;;9.80;8.10;;;9.40;94.30;;;;;;5098057;28;20023;-40
2022/05/02 02:57:20;;;;;;;8.57;7.53;;;9.30;94.40;;;;;;5108133;28;20038;-42
2022/05/02 02:59:45;;;;;;;9.32;8.10;;;9.30;94.50;;;;;;5095160;28;20104;-41
2022/05/02 03:02:11;;;;;;;11.57;9.00;;;9.20;94.60;;;;;;5109134;28;20045;-42
2022/05/02 03:07:24;;;;;;;11.02;8.35;;;9.20;94.80;;;;;;5067946;28;20105;-41
2022/05/02 03:09:50;;;;;;;9.45;8.00;;;9.10;94.80;;;;;;5097496;28;20119;-39
2022/05/02 03:12:15;;;;;;;10.88;8.40;;;9.10;94.90;;;;;;5087378;28;20130;-42
2022/05/02 03:14:41;;;;;;;10.73;8.23;;;9.10;95.00;;;;;;5097849;28;20034;-41
2022/05/02 03:17:06;;;;;;;9.40;8.10;;;9.10;95.00;;;;;;5090160;28;20035;-43
2022/05/02 03:19:32;;;;;;;10.10;8.32;;;9.00;94.90;;;;;;5095397;28;20095;-44
2022/05/02 03:21:57;;;;;;;9.20;7.13;;;9.00;94.90;;;;;;5093330;28;20287;-43
2022/05/02 03:24:23;;;;;;;9.32;7.75;;;9.00;94.90;;;;;;5092247;28;20016;-42
2022/05/02 03:26:48;;;;;;;8.63;7.72;;;9.00;94.90;;;;;;5095867;28;20035;-41
2022/05/02 03:29:14;;;;;;;10.25;8.00;;;8.90;94.90;;;;;;5090229;28;20020;-42
2022/05/02 03:31:40;;;;;;;10.52;7.78;;;8.90;94.90;;;;;;5097314;28;20036;-42
2022/05/02 03:34:05;;;;;;;10.45;7.93;;;8.90;95.00;;;;;;5089831;28;20055;-42
2022/05/02 03:36:31;;;;;;;9.40;7.97;;;8.90;95.00;;;;;;5099309;28;20024;-45
2022/05/02 03:38:56;;;;;;;9.77;7.45;;;8.90;95.00;;;;;;5088435;28;20031;-41
2022/05/02 03:41:25;;;;;;;8.82;7.90;;;8.80;95.30;;;;;;5100457;28;20103;-41
2022/05/02 03:43:53;;;;;;;10.07;7.88;;;8.80;95.10;;;;;;5096703;28;20082;-41
2022/05/02 03:46:18;;;;;;;10.95;8.52;;;8.80;95.10;;;;;;5094507;28;20024;-42
2022/05/02 03:48:44;;;;;;;10.25;8.57;;;8.80;95.20;;;;;;5108086;28;20030;-42
2022/05/02 03:51:10;;;;;;;8.30;7.43;;;8.70;95.20;;;;;;5095620;28;20020;-40
2022/05/02 03:53:36;;;;;;;12.05;8.35;;;8.70;95.20;;;;;;5066275;28;20029;-42
2022/05/02 03:56:01;;;;;;;8.70;7.80;;;8.70;95.20;;;;;;5091796;28;20032;-41
2022/05/02 03:58:27;;;;;;;10.25;7.65;;;8.70;95.30;;;;;;5089689;28;20056;-40
2022/05/02 04:00:55;;;;;;;9.77;7.30;;;8.70;95.30;;;;;;5094549;28;20058;-42
2022/05/02 04:03:24;;;;;;;9.40;7.82;;;8.70;95.30;;;;;;5092610;28;20048;-41
2022/05/02 04:05:49;;;;;;;8.77;7.38;;;8.70;95.30;;;;;;5092548;28;20024;-41
2022/05/02 04:08:15;;;;;;;9.38;7.55;;;8.60;95.30;;;;;;5094119;28;20411;-42
2022/05/02 04:10:41;;;;;;;9.68;7.40;;;8.60;95.30;;;;;;5089368;28;20770;-41
2022/05/02 04:13:06;;;;;;;10.90;7.80;;;8.60;95.30;;;;;;5097080;28;20036;-41
2022/05/02 04:15:34;;;;;;;10.45;7.63;;;8.60;95.40;;;;;;5087851;28;20023;-43
2022/05/02 04:17:59;;;;;;;8.93;7.65;;;8.60;95.40;;;;;;5098497;28;20043;-41
2022/05/02 04:20:25;;;;;;;12.95;7.75;;;8.60;95.50;;;;;;5086118;28;20055;-41
2022/05/02 04:22:50;;;;;;;10.25;8.88;;;8.60;95.50;;;;;;5097494;28;20113;-41
2022/05/02 04:25:16;;;;;;;11.95;9.13;;;8.60;95.60;;;;;;5086544;28;20032;-41
2022/05/02 04:27:42;;;;;;;9.43;8.18;;;8.50;95.60;;;;;;5099184;28;20026;-44
2022/05/02 04:30:08;;;;;;;9.95;8.40;;;8.50;95.70;;;;;;5087056;28;20081;-44
2022/05/02 04:32:34;;;;;;;10.38;8.30;;;8.50;95.70;;;;;;5098924;28;20070;-41
2022/05/02 04:34:59;;;;;;;10.15;8.15;;;8.50;95.70;;;;;;5086705;28;20439;-41
2022/05/02 04:37:25;;;;;;;10.68;8.05;;;8.50;95.80;;;;;;5096077;28;20023;-42
2022/05/02 04:39:54;;;;;;;12.30;8.40;;;8.50;95.80;;;;;;5089045;28;20032;-40
2022/05/02 04:42:20;;;;;;;9.45;7.80;;;8.50;95.80;;;;;;5093777;28;20019;-42
2022/05/02 04:44:45;;;;;;;9.10;8.02;;;8.50;95.80;;;;;;5105866;28;20036;-41
2022/05/02 04:47:11;;;;;;;8.88;7.75;;;8.50;95.90;;;;;;5101031;28;20027;-42
2022/05/02 04:49:36;;;;;;;8.50;7.60;;;8.50;95.90;;;;;;5098454;28;20475;-41
2022/05/02 04:52:02;;;;;;;9.55;8.27;;;8.50;95.90;;;;;;5104390;28;20020;-43
2022/05/02 04:54:28;;;;;;;8.98;7.78;;;8.50;96.00;;;;;;5095628;28;20114;-40
2022/05/02 04:56:53;;;;;;;9.60;7.78;;;8.50;96.00;;;;;;5104969;28;20062;-42
2022/05/02 04:59:19;;;;;;;11.10;7.97;;;8.50;96.10;;;;;;5094756;28;20051;-42
2022/05/02 05:01:44;;;;;;;8.80;7.75;;;8.60;96.10;;;;;;5105632;28;20024;-42
2022/05/02 05:04:10;;;;;;;9.55;7.68;;;8.60;96.10;;;;;;5094715;28;20516;-43
2022/05/02 05:06:36;;;;;;;9.20;7.90;;;8.60;96.10;;;;;;5105184;28;20024;-41
2022/05/02 05:09:02;;;;;;;8.15;6.90;;;8.60;96.30;;;;;;5092746;28;20590;-43
2022/05/02 05:11:39;;;;;;;9.88;7.97;;;8.70;96.20;;;;;;5105479;28;20053;-42
2022/05/02 05:17:27;;;;;;;10.30;7.75;;;8.70;96.20;;;;;;5105876;28;20039;-42
2022/05/02 05:20:22;;;;;;;10.57;8.05;;;8.70;96.20;;;;;;5094515;28;20027;-41
2022/05/02 05:22:52;;;;;;;9.80;8.13;;;8.80;96.20;;;;;;5104411;28;20023;-39
2022/05/02 05:25:25;;;;;;;11.02;8.32;;;8.90;96.20;;;;;;5094259;28;20027;-41
2022/05/02 05:28:34;;;;;;;10.45;8.18;;;8.90;96.30;;;;;;5104557;28;20110;-42
2022/05/02 05:31:31;;;;;;;10.23;8.10;;;9.00;96.40;;;;;;5090476;28;20031;-41
2022/05/02 05:34:06;;;;;;;9.70;7.50;;;9.00;96.30;;;;;;5098533;28;20032;-42
2022/05/02 05:36:50;;;;;;;10.88;7.85;;;9.10;96.30;;;;;;5101689;28;20019;-41
2022/05/02 05:39:26;;;;;;;12.50;7.97;;;9.10;96.30;;;;;;5096632;28;20464;-42
2022/05/02 05:42:06;;;;;;;13.65;8.02;;;9.20;96.30;;;;;;5103615;28;20054;-45
2022/05/02 05:45:00;;;;;;;15.52;7.78;;;9.30;96.40;;;;;;5100778;28;20031;-42
2022/05/02 05:47:47;;;;;;;9.80;7.50;;;9.30;96.30;;;;;;5065670;28;20743;-42
2022/05/02 05:50:28;;;;;;;13.30;7.28;;;9.30;96.30;;;;;;5094977;28;20032;-41
2022/05/02 05:53:19;;;;;;;10.75;7.00;;;9.40;96.30;;;;;;5084700;28;20447;-41
2022/05/02 05:56:09;;;;;;;7.35;6.55;;;9.40;96.30;;;;;;5093831;28;20098;-42
2022/05/02 05:58:46;;;;;;;9.57;6.68;;;9.40;96.30;;;;;;5084107;28;20087;-42
2022/05/02 06:01:15;;;;;;;7.32;6.50;;;9.50;96.30;;;;;;5092789;28;20137;-41
2022/05/02 06:04:02;;;;;;;9.98;7.72;;;9.60;96.20;;;;;;5085050;28;20032;-46
2022/05/02 06:06:28;;;;;;;8.02;6.47;;;9.70;96.20;;;;;;5092809;28;20047;-43
2022/05/02 06:08:58;;;;;;;8.20;6.30;;;9.80;96.10;;;;;;5085711;28;20054;-42
2022/05/02 06:11:25;;;;;;;7.75;6.70;;;10.00;96.00;;;;;;5095743;28;20502;-41
2022/05/02 06:13:53;;;;;;;14.00;6.88;;;10.10;95.90;;;;;;5084397;28;20046;-41
2022/05/02 06:19:26;;;;;;;9.10;6.93;;;10.20;95.90;;;;;;5085044;28;20077;-42
2022/05/02 06:21:53;;;;;;;9.77;7.10;;;10.30;95.80;;;;;;5091837;28;20470;-43
2022/05/02 06:24:19;;;;;;;7.80;6.78;;;10.40;95.80;;;;;;5085731;28;20036;-40
2022/05/02 06:26:46;;;;;;;6.65;5.90;;;10.50;95.70;;;;;;5092786;28;20133;-41
2022/05/02 06:29:12;;;;;;;7.30;6.60;;;10.50;95.70;;;;;;5104602;28;20035;-40
2022/05/02 06:31:44;;;;;;;7.78;6.75;;;10.60;95.70;;;;;;5097419;28;20028;-41
2022/05/02 06:34:11;;;;;;;8.82;6.47;;;10.70;95.70;;;;;;5084834;28;20023;-43
2022/05/02 06:36:59;;;;;;;8.95;7.47;;;10.80;95.70;;;;;;5097031;28;20030;-41
2022/05/02 06:39:45;;;;;;;7.68;6.45;;;10.80;95.60;;;;;;5064770;28;20031;-40
2022/05/02 06:42:28;;;;;;;9.63;6.90;;;10.90;95.60;;;;;;5096327;28;20112;-42
2022/05/02 06:45:25;;;;;;;8.27;6.85;;;10.90;95.50;;;;;;5101083;28;20142;-42
2022/05/02 06:48:25;;;;;;;7.90;7.10;;;11.00;95.50;;;;;;5098811;28;20032;-43
2022/05/02 06:50:59;;;;;;;8.90;6.45;;;11.00;95.40;;;;;;5090314;28;20450;-40
2022/05/02 06:53:57;;;;;;;7.43;6.22;;;11.10;95.30;;;;;;5089206;28;20054;-41
2022/05/02 06:56:42;;;;;;;7.78;6.10;;;11.20;95.30;;;;;;5103580;28;20464;-43
2022/05/02 06:59:20;;;;;;;6.03;5.43;;;11.20;95.20;;;;;;5103050;28;20418;-41
2022/05/02 07:01:52;;;;;;;6.60;5.90;;;11.30;95.10;;;;;;5102648;28;20032;-40
2022/05/02 07:04:49;;;;;;;6.25;5.55;;;11.40;95.00;;;;;;5103075;28;20058;-41
2022/05/02 07:07:33;;;;;;;7.85;6.15;;;11.50;94.90;;;;;;5100384;28;20097;-41
2022/05/02 07:10:08;;;;;;;5.68;5.10;;;11.60;94.70;;;;;;5106737;28;20046;-42
2022/05/02 07:13:13;;;;;;;6.82;5.78;;;11.60;94.50;;;;;;5099628;28;20513;-41
2022/05/02 07:15:50;;;;;;;5.63;5.00;;;11.70;94.30;;;;;;5068428;28;20073;-42
2022/05/02 07:18:40;;;;;;;5.10;4.60;;;11.80;94.10;;;;;;5098995;28;20031;-43
2022/05/02 07:21:36;;;;;;;8.23;5.80;;;11.90;93.90;;;;;;5088460;28;20103;-42
2022/05/02 07:24:30;;;;;;;8.25;5.78;;;11.90;93.90;;;;;;5096689;28;20116;-43
2022/05/02 07:27:23;;;;;;;7.47;6.15;;;12.00;93.80;;;;;;5089936;28;20467;-40
2022/05/02 07:29:50;;;;;;;7.88;5.70;;;12.10;93.70;;;;;;5091500;28;20043;-41
2022/05/02 07:32:20;;;;;;;7.75;6.05;;;12.10;93.60;;;;;;5104710;28;20115;-42
2022/05/02 07:34:48;;;;;;;7.43;6.13;;;12.20;93.50;;;;;;5097860;28;20051;-42
2022/05/02 07:37:17;;;;;;;6.70;6.00;;;12.20;93.20;;;;;;5106324;28;20137;-42
2022/05/02 07:39:44;;;;;;;9.07;5.85;;;12.30;93.30;;;;;;5097017;28;20027;-42
2022/05/02 07:42:12;;;;;;;9.07;6.68;;;12.40;92.90;;;;;;5106950;28;20054;-42
2022/05/02 07:44:38;;;;;;;6.20;5.43;;;12.40;92.70;;;;;;5102112;28;20020;-42
2022/05/02 07:47:07;;;;;;;7.20;6.10;;;12.50;92.70;;;;;;5109005;28;20078;-42
2022/05/02 07:49:34;;;;;;;6.45;5.70;;;12.50;92.70;;;;;;5094675;28;20749;-41
2022/05/02 07:52:01;;;;;;;10.00;6.10;;;12.60;92.50;;;;;;5107937;28;20038;-42
2022/05/02 07:54:29;;;;;;;6.15;5.13;;;12.60;92.50;;;;;;5094742;28;20032;-40
2022/05/02 07:57:00;;;;;;;9.32;5.97;;;12.70;92.50;;;;;;5106958;28;20814;-42
2022/05/02 07:59:36;;;;;;;7.15;6.15;;;12.80;92.30;;;;;;5093683;28;20040;-41
2022/05/02 08:02:05;;;;;;;7.63;6.75;;;12.80;92.20;;;;;;5067563;28;20099;-44
2022/05/02 08:04:32;;;;;;;7.90;6.53;;;12.90;91.90;;;;;;5095090;28;20016;-43
2022/05/02 08:07:11;;;;;;;10.90;6.25;;;12.90;91.80;;;;;;5087682;28;20147;-42
2022/05/02 08:09:55;;;;;;;7.72;6.20;;;13.00;91.90;;;;;;5097835;28;20451;-42
2022/05/02 08:12:28;;;;;;;8.65;6.82;;;13.10;91.60;;;;;;5066541;28;20046;-41
2022/05/02 08:14:58;;;;;;;7.45;5.93;;;13.10;91.50;;;;;;5095959;28;20752;-43
2022/05/02 08:17:42;;;;;;;8.45;7.00;;;13.10;91.50;;;;;;5066803;28;20033;-42
2022/05/02 08:20:32;;;;;;;6.45;5.43;;;13.20;91.40;;;;;;5096361;28;20030;-41
2022/05/02 08:29:29;;;;;;;9.10;7.40;;;13.30;90.70;;;;;;5089832;28;20086;-40
2022/05/02 08:32:22;;;;;;;8.00;6.13;;;13.30;90.60;;;;;;5094359;28;20047;-41
2022/05/02 08:35:03;;;;;;;7.25;6.13;;;13.40;90.70;;;;;;5091341;28;20024;-41
2022/05/02 08:38:01;;;;;;;9.23;7.20;;;13.50;90.60;;;;;;5091697;28;20043;-40
2022/05/02 08:40:27;;;;;;;12.20;9.25;;;13.60;90.40;;;;;;5095975;28;20031;-41
2022/05/02 08:42:59;;;;;;;10.07;9.07;;;13.70;89.60;;;;;;5089474;28;20380;-42
2022/05/02 08:45:53;;;;;;;9.18;7.68;;;13.80;88.50;;;;;;5095055;28;20136;-42
2022/05/02 08:52:33;;;;;;;9.52;7.05;;;14.00;87.60;;;;;;5097568;28;20051;-42
2022/05/02 08:55:24;;;;;;;9.48;7.88;;;14.10;87.10;;;;;;5073952;28;20056;-42
2022/05/02 08:58:20;;;;;;;9.45;7.72;;;14.20;86.90;;;;;;5091530;28;20060;-42
2022/05/02 09:01:22;;;;;;;8.73;7.80;;;14.30;86.70;;;;;;5099927;28;20044;-41
2022/05/02 09:04:05;;;;;;;8.80;7.35;;;14.40;86.70;;;;;;5105031;28;20519;-42
2022/05/02 09:06:58;;;;;;;8.20;6.63;;;14.50;86.40;;;;;;5095431;28;20036;-42
2022/05/02 09:10:06;;;;;;;6.63;5.93;;;14.50;86.10;;;;;;5065524;28;20029;-41
2022/05/02 09:12:59;;;;;;;8.13;6.28;;;14.60;86.20;;;;;;5046026;28;20044;-43
2022/05/02 09:15:46;;;;;;;9.35;7.15;;;14.60;86.30;;;;;;5087683;28;20031;-42
2022/05/02 09:18:42;;;;;;;12.40;8.32;;;14.70;86.10;;;;;;5086168;28;20046;-42
2022/05/02 09:21:35;;;;;;;7.75;6.90;;;14.70;85.50;;;;;;5103287;28;20466;-41
2022/05/02 09:24:09;;;;;;;7.43;6.70;;;14.70;85.50;;;;;;5100786;28;20027;-42
2022/05/02 09:27:13;;;;;;;7.65;6.43;;;14.70;85.30;;;;;;5098776;28;20051;-43
2022/05/02 09:30:16;;;;;;;7.82;6.18;;;14.70;85.70;;;;;;5105513;28;20116;-40
2022/05/02 09:32:47;;;;;;;6.47;5.82;;;14.80;85.10;;;;;;5091455;28;20546;-42
2022/05/02 09:35:23;;;;;;;7.13;5.90;;;14.90;85.00;;;;;;5104560;28;20062;-43
2022/05/02 09:38:03;;;;;;;11.32;7.90;;;14.90;83.90;;;;;;5091798;28;20097;-44
2022/05/02 09:40:35;;;;;;;7.53;6.38;;;15.00;82.90;;;;;;5104853;28;20028;-42
2022/05/02 09:43:15;;;;;;;9.87;7.40;;;15.10;82.80;;;;;;5091831;28;20430;-41
2022/05/02 09:52:16;;;;;;;7.32;5.80;;;15.10;83.10;;;;;;5006800;28;20055;-40
2022/05/02 09:58:35;;;;;;;9.27;8.15;;;15.10;82.00;;;;;;5095336;28;20038;-42
2022/05/02 10:01:16;;;;;;;6.70;6.00;;;15.10;81.40;;;;;;5081270;28;20048;-42
2022/05/02 10:04:35;;;;;;;7.40;5.60;;;15.10;82.10;;;;;;5096567;28;20038;-40
2022/05/02 10:07:11;;;;;;;7.53;6.78;;;15.10;82.50;;;;;;5085353;28;20024;-41
2022/05/02 10:10:03;;;;;;;6.78;6.07;;;15.10;81.70;;;;;;5096388;28;20024;-43
2022/05/02 10:12:46;;;;;;;6.82;6.03;;;15.10;81.40;;;;;;5085497;28;20044;-43
2022/05/02 10:15:35;;;;;;;7.85;6.70;;;15.10;81.50;;;;;;5086885;28;20106;-41
2022/05/02 10:18:31;;;;;;;8.23;7.38;;;15.20;80.80;;;;;;5102630;28;20112;-43
2022/05/02 10:21:22;;;;;;;10.35;8.60;;;15.20;80.20;;;;;;5096270;28;20066;-42
2022/05/02 10:24:10;;;;;;;7.55;6.53;;;15.20;79.10;;;;;;5088731;28;20374;-43
2022/05/02 10:26:52;;;;;;;7.65;6.47;;;15.20;80.00;;;;;;5088674;28;20039;-43
2022/05/02 10:29:41;;;;;;;9.95;6.25;;;15.30;80.20;;;;;;5099346;28;20055;-42
2022/05/02 10:32:25;;;;;;;8.50;6.90;;;15.30;79.80;;;;;;5067774;28;20115;-41
2022/05/02 10:34:54;;;;;;;12.00;7.95;;;15.40;79.80;;;;;;5100222;28;20023;-42
2022/05/02 10:37:27;;;;;;;8.05;6.72;;;15.40;79.60;;;;;;5089078;28;20032;-42
2022/05/02 10:40:03;;;;;;;8.90;6.43;;;15.40;79.50;;;;;;5102733;28;20023;-43
2022/05/02 10:42:33;;;;;;;5.80;5.22;;;15.40;79.70;;;;;;5088450;28;20043;-41
2022/05/02 10:45:09;;;;;;;5.30;4.80;;;15.40;80.00;;;;;;5102251;28;20038;-43
2022/05/02 10:47:46;;;;;;;6.25;5.65;;;15.50;79.90;;;;;;5087897;28;20526;-42
2022/05/02 10:50:37;;;;;;;6.25;5.63;;;15.60;79.40;;;;;;5102534;28;20118;-43
2022/05/02 10:53:32;;;;;;;8.02;7.22;;;15.70;78.90;;;;;;5089952;28;20101;-42
2022/05/02 10:56:12;;;;;;;6.45;5.70;;;15.80;78.10;;;;;;5096979;28;20066;-43
2022/05/02 10:58:43;;;;;;;5.95;5.35;;;15.80;78.00;;;;;;5089967;28;20048;-42
2022/05/02 11:01:45;;;;;;;7.65;6.07;;;15.90;78.00;;;;;;5097717;28;20085;-44
2022/05/02 11:04:40;;;;;;;8.50;6.72;;;15.90;77.90;;;;;;5089354;28;20028;-41
2022/05/02 11:07:24;;;;;;;7.60;6.40;;;15.90;77.20;;;;;;5093436;28;20085;-41
2022/05/02 11:10:11;;;;;;;8.20;6.68;;;16.00;77.40;;;;;;5104575;28;20030;-43
2022/05/02 11:12:40;;;;;;;6.88;6.07;;;15.90;77.10;;;;;;5103159;28;20120;-41
2022/05/02 11:15:09;;;;;;;6.07;5.45;;;16.00;76.70;;;;;;5104308;28;20531;-42
2022/05/02 11:18:08;;;;;;;5.47;4.97;;;16.00;76.40;;;;;;5101640;28;20055;-43
2022/05/02 11:20:50;;;;;;;8.05;5.13;;;16.00;76.80;;;;;;5101689;28;20573;-43
2022/05/02 11:23:51;;;;;;;5.15;4.57;;;16.00;77.10;;;;;;5105932;28;20020;-44
2022/05/02 11:26:43;;;;;;;6.35;3.85;;;16.10;77.00;;;;;;5096644;28;20051;-43
2022/05/02 11:29:37;;;;;;;4.40;3.90;;;16.10;77.00;;;;;;5069413;28;20078;-42
2022/05/02 11:32:22;;;;;;;4.28;3.88;;;16.20;77.10;;;;;;5093719;28;20048;-45
2022/05/02 11:35:03;;;;;;;5.68;5.03;;;16.30;77.20;;;;;;5108523;28;20031;-42
2022/05/02 11:38:05;;;;;;;4.50;3.80;;;16.50;77.20;;;;;;5097259;28;20019;-41
2022/05/02 11:40:34;;;;;;;4.18;3.70;;;16.70;77.20;;;;;;5107014;28;20020;-43
2022/05/02 11:43:02;;;;;;;4.47;4.07;;;16.80;77.00;;;;;;5087681;28;20122;-43
2022/05/02 11:45:40;;;;;;;5.60;3.75;;;17.00;77.00;;;;;;5092623;28;20023;-43
2022/05/02 11:48:20;;;;;;;5.72;4.40;;;17.20;76.80;;;;;;5100388;28;20089;-41
2022/05/02 11:50:47;;;;;;;4.72;4.15;;;17.30;76.60;;;;;;5088603;28;20032;-41
2022/05/02 11:53:16;;;;;;;5.22;4.72;;;17.40;76.10;;;;;;5099601;28;20039;-43
2022/05/02 11:55:46;;;;;;;5.93;5.32;;;17.50;75.20;;;;;;5106762;28;20081;-44
2022/05/02 11:58:24;;;;;;;6.57;5.53;;;17.60;74.90;;;;;;5096642;28;20047;-45
2022/05/02 12:01:02;;;;;;;6.30;5.65;;;17.50;74.50;;;;;;5107477;28;20046;-41
2022/05/02 12:03:48;;;;;;;6.18;5.57;;;17.50;74.00;;;;;;5097006;28;20064;-41
2022/05/02 12:06:16;;;;;;;5.60;5.07;;;17.50;73.80;;;;;;5106345;28;20073;-42
2022/05/02 12:08:45;;;;;;;5.07;4.57;;;17.40;74.10;;;;;;5097314;28;20061;-43
2022/05/02 12:11:14;;;;;;;5.40;4.90;;;17.30;74.30;;;;;;5107201;28;20035;-43
2022/05/02 12:13:44;;;;;;;6.05;5.22;;;17.30;74.50;;;;;;5095346;28;20151;-42
2022/05/02 12:16:17;;;;;;;6.80;5.55;;;17.20;74.40;;;;;;5108222;28;21057;-47
2022/05/02 12:18:48;;;;;;;6.60;4.97;;;17.20;74.00;;;;;;5095330;28;20024;-43
2022/05/02 12:21:35;;;;;;;5.70;4.93;;;17.30;74.10;;;;;;5088219;28;20070;-44
2022/05/02 12:24:02;;;;;;;5.25;4.68;;;17.30;74.90;;;;;;5096816;28;20453;-43
2022/05/02 12:26:28;;;;;;;7.18;4.95;;;17.40;74.40;;;;;;5086130;28;20419;-44
2022/05/02 12:29:04;;;;;;;4.72;4.00;;;17.50;74.40;;;;;;5094904;28;20126;-42
2022/05/02 12:31:34;;;;;;;5.85;4.30;;;17.60;74.60;;;;;;5108186;28;20039;-43
2022/05/02 12:34:02;;;;;;;4.10;3.70;;;17.70;74.70;;;;;;5094321;28;20483;-42
2022/05/02 12:36:37;;;;;;;3.97;3.58;;;17.90;74.60;;;;;;5107317;28;20024;-42
2022/05/02 12:39:05;;;;;;;4.65;3.58;;;18.00;74.40;;;;;;5094835;28;20363;-42
2022/05/02 12:41:44;;;;;;;4.90;4.40;;;18.20;74.10;;;;;;5095744;28;20020;-44
2022/05/02 12:44:13;;;;;;;7.68;4.60;;;18.40;73.70;;;;;;5100476;28;20383;-44
2022/05/02 12:46:44;;;;;;;4.28;3.88;;;18.50;72.60;;;;;;5106636;28;20125;-44
2022/05/02 12:49:38;;;;;;;6.53;4.60;;;18.70;72.30;;;;;;5093728;28;20114;-42
2022/05/02 12:52:04;;;;;;;5.40;4.85;;;18.70;71.20;;;;;;5106206;28;20044;-44
2022/05/02 12:54:32;;;;;;;4.28;3.88;;;18.60;70.70;;;;;;5092613;28;20028;-42
2022/05/02 13:02:45;;;;;;;4.68;4.18;;;18.70;70.50;;;;;;5105669;28;20042;-42
2022/05/02 13:05:17;;;;;;;5.75;4.80;;;18.70;70.50;;;;;;5094644;28;20031;-42
2022/05/02 13:07:47;;;;;;;5.97;4.47;;;18.80;69.80;;;;;;5106752;28;20176;-43
2022/05/02 13:10:18;;;;;;;4.97;4.32;;;18.80;70.00;;;;;;5093352;28;20030;-43
2022/05/02 13:13:04;;;;;;;3.83;3.53;;;18.80;69.50;;;;;;5106709;28;20031;-43
2022/05/02 13:15:45;;;;;;;4.45;4.05;;;18.80;69.90;;;;;;5092203;28;20019;-42
2022/05/02 13:18:13;;;;;;;4.88;3.90;;;18.80;69.70;;;;;;5106472;28;20628;-43
2022/05/02 13:20:39;;;;;;;5.80;5.20;;;18.80;69.80;;;;;;5092686;28;20028;-43
2022/05/02 13:23:13;;;;;;;4.40;3.60;;;18.70;67.80;;;;;;5106135;28;20429;-42
2022/05/02 13:25:52;;;;;;;4.50;4.10;;;18.60;69.00;;;;;;5093540;28;20081;-40
2022/05/02 13:28:27;;;;;;;5.00;4.50;;;18.50;69.20;;;;;;5106147;28;20455;-43
2022/05/02 13:30:59;;;;;;;3.50;3.20;;;18.40;69.10;;;;;;5093003;28;20019;-43
2022/05/02 13:33:37;;;;;;;5.07;3.92;;;18.40;69.40;;;;;;5106252;28;20398;-43
2022/05/02 13:36:05;;;;;;;4.05;3.65;;;18.30;69.60;;;;;;5092736;28;20758;-43
2022/05/02 13:38:44;;;;;;;3.95;3.55;;;18.30;70.40;;;;;;5106363;28;20544;-43
2022/05/02 13:41:26;;;;;;;3.50;3.20;;;18.30;70.00;;;;;;5093118;28;20039;-42
2022/05/02 13:44:05;;;;;;;2.97;2.75;;;18.40;70.20;;;;;;5105224;28;20043;-43
2022/05/02 13:46:40;;;;;;;7.13;5.05;;;18.50;70.30;;;;;;5090374;28;20026;-43
2022/05/02 13:49:28;;;;;;;3.95;3.30;;;18.60;70.00;;;;;;5086256;28;20028;-44
2022/05/02 13:52:14;;;;;;;3.45;3.15;;;18.70;70.00;;;;;;5093196;28;20499;-42
2022/05/02 13:54:46;;;;;;;4.57;3.90;;;18.80;69.60;;;;;;5087331;28;20040;-42
2022/05/02 13:57:24;;;;;;;;;;;18.80;70.20;;;;;;5100960;28;20032;-42
2022/05/02 14:03:34;;;;;;;3.20;2.90;;;18.90;69.20;;;;;;5091075;28;20059;-42